createdAt,value
2023-05-17T00:01:24.681Z,7.62
2023-05-17T00:04:33.436Z,7.66
2023-05-17T00:07:43.583Z,7.71
2023-05-17T00:10:52.183Z,7.76
2023-05-17T00:14:01.195Z,7.74
2023-05-17T00:17:09.851Z,7.73
2023-05-17T00:20:18.444Z,7.63
2023-05-17T00:23:28.728Z,7.64
2023-05-17T00:26:37.517Z,7.65
2023-05-17T00:29:45.882Z,7.56
2023-05-17T00:32:54.259Z,7.55
2023-05-17T00:36:02.469Z,7.60
2023-05-17T00:39:12.010Z,7.48
2023-05-17T00:42:20.398Z,7.52
2023-05-17T00:45:29.357Z,7.39
2023-05-17T00:48:37.880Z,7.41
2023-05-17T00:51:47.221Z,7.31
2023-05-17T00:54:57.093Z,7.28
2023-05-17T00:58:05.544Z,7.20
2023-05-17T01:01:13.716Z,7.15
2023-05-17T01:04:22.352Z,7.09
2023-05-17T01:07:30.727Z,7.05
2023-05-17T01:10:55.280Z,7.05
2023-05-17T01:14:25.317Z,7.01
2023-05-17T01:17:49.718Z,6.99
2023-05-17T01:21:03.258Z,6.99
2023-05-17T01:24:31.158Z,6.99
2023-05-17T01:27:44.365Z,6.99
2023-05-17T01:30:54.297Z,6.99
2023-05-17T01:34:02.518Z,7.03
2023-05-17T01:37:11.011Z,7.02
2023-05-17T01:40:20.603Z,6.98
2023-05-17T01:43:42.694Z,6.92
2023-05-17T01:46:56.153Z,6.90
2023-05-17T01:50:08.527Z,6.90
2023-05-17T01:53:26.945Z,6.87
2023-05-17T01:56:42.048Z,6.89
2023-05-17T01:59:54.508Z,6.86
2023-05-17T02:03:02.718Z,6.84
2023-05-17T02:06:11.674Z,6.80
2023-05-17T02:09:23.961Z,6.79
2023-05-17T02:12:32.417Z,6.80
2023-05-17T02:15:42.196Z,6.80
2023-05-17T02:18:50.903Z,6.81
2023-05-17T02:22:00.066Z,6.82
2023-05-17T02:25:10.744Z,6.82
2023-05-17T02:28:21.456Z,6.84
2023-05-17T02:31:31.519Z,6.86
2023-05-17T02:34:49.936Z,6.89
2023-05-17T02:37:58.123Z,6.92
2023-05-17T02:41:06.470Z,6.94
2023-05-17T02:44:14.674Z,6.85
2023-05-17T02:47:24.213Z,6.84
2023-05-17T02:50:32.522Z,6.80
2023-05-17T02:53:41.541Z,6.79
2023-05-17T02:56:50.414Z,6.71
2023-05-17T02:59:59.567Z,6.74
2023-05-17T03:03:10.661Z,6.79
2023-05-17T03:06:19.084Z,6.77
2023-05-17T03:09:29.820Z,6.82
2023-05-17T03:12:38.725Z,6.74
2023-05-17T03:15:47.062Z,6.81
2023-05-17T03:18:57.725Z,6.93
2023-05-17T03:22:11.507Z,6.80
2023-05-17T03:25:20.475Z,6.76
2023-05-17T03:28:29.223Z,6.95
2023-05-17T03:31:37.954Z,6.80
2023-05-17T03:34:47.755Z,6.85
2023-05-17T03:37:56.018Z,6.80
2023-05-17T03:41:06.212Z,6.84
2023-05-17T03:44:15.586Z,6.84
2023-05-17T03:47:24.826Z,6.85
2023-05-17T03:50:34.680Z,6.87
2023-05-17T03:53:43.732Z,6.94
2023-05-17T03:56:52.330Z,6.95
2023-05-17T04:00:00.667Z,6.96
2023-05-17T04:03:09.180Z,6.97
2023-05-17T04:06:18.771Z,6.95
2023-05-17T04:09:27.042Z,6.81
2023-05-17T04:12:35.278Z,6.77
2023-05-17T04:15:43.659Z,6.73
2023-05-17T04:18:52.896Z,6.63
2023-05-17T04:22:02.938Z,6.46
2023-05-17T04:25:12.105Z,6.26
2023-05-17T04:28:22.250Z,6.17
2023-05-17T04:31:33.662Z,6.20
2023-05-17T04:34:43.635Z,6.14
2023-05-17T04:37:53.871Z,6.17
2023-05-17T04:41:04.689Z,6.22
2023-05-17T04:44:14.948Z,6.34
2023-05-17T04:47:24.748Z,6.46
2023-05-17T04:50:34.018Z,6.57
2023-05-17T04:53:43.628Z,6.57
2023-05-17T04:56:56.898Z,6.64
2023-05-17T05:00:26.299Z,6.75
2023-05-17T05:03:41.700Z,6.77
2023-05-17T05:06:51.906Z,6.91
2023-05-17T05:10:02.707Z,6.96
2023-05-17T05:13:11.289Z,7.08
2023-05-17T05:16:19.743Z,7.25
2023-05-17T05:19:28.289Z,7.35
2023-05-17T05:22:37.792Z,7.60
2023-05-17T05:25:48.678Z,7.77
2023-05-17T05:28:57.223Z,7.77
2023-05-17T05:32:07.380Z,7.74
2023-05-17T05:35:20.794Z,7.88
2023-05-17T05:38:29.116Z,7.82
2023-05-17T05:41:38.748Z,7.24
2023-05-17T05:44:48.030Z,7.37
2023-05-17T05:47:59.717Z,7.53
2023-05-17T05:51:09.028Z,7.55
2023-05-17T05:54:19.609Z,7.61
2023-05-17T05:57:29.920Z,7.45
2023-05-17T06:00:38.478Z,7.40
2023-05-17T06:03:47.116Z,7.33
2023-05-17T06:06:56.532Z,7.35
2023-05-17T06:10:05.754Z,7.34
2023-05-17T06:13:16.022Z,7.41
2023-05-17T06:16:24.232Z,7.40
2023-05-17T06:19:32.768Z,7.25
2023-05-17T06:22:41.687Z,7.45
2023-05-17T06:25:50.132Z,7.58
2023-05-17T06:29:00.865Z,7.53
2023-05-17T06:32:09.971Z,7.23
2023-05-17T06:35:18.921Z,7.22
2023-05-17T06:38:27.649Z,7.20
2023-05-17T06:41:36.162Z,7.09
2023-05-17T06:44:46.482Z,7.05
2023-05-17T06:47:55.444Z,7.40
2023-05-17T06:51:04.389Z,7.69
2023-05-17T06:54:12.807Z,7.85
2023-05-17T06:57:21.602Z,8.20
2023-05-17T07:00:32.590Z,8.52
2023-05-17T07:03:41.618Z,8.87
2023-05-17T07:06:50.313Z,9.10
2023-05-17T07:10:00.360Z,9.33
2023-05-17T07:13:09.644Z,9.50
2023-05-17T07:16:20.079Z,9.71
2023-05-17T07:19:30.004Z,9.71
2023-05-17T07:22:38.793Z,9.78
2023-05-17T07:25:47.354Z,10.02
2023-05-17T07:28:55.932Z,10.00
2023-05-17T07:32:06.701Z,10.50
2023-05-17T07:35:15.163Z,10.86
2023-05-17T07:38:24.035Z,10.98
2023-05-17T07:41:33.970Z,11.52
2023-05-17T07:44:42.521Z,11.44
2023-05-17T07:47:52.281Z,11.71
2023-05-17T07:51:00.712Z,11.85
2023-05-17T07:54:09.083Z,11.66
2023-05-17T07:57:17.404Z,12.11
2023-05-17T08:00:27.204Z,11.52
2023-05-17T08:03:37.197Z,11.78
2023-05-17T08:06:48.404Z,11.96
2023-05-17T08:09:57.085Z,11.82
2023-05-17T08:13:07.037Z,12.08
2023-05-17T08:16:15.496Z,12.76
2023-05-17T08:19:26.671Z,11.44
2023-05-17T08:22:35.193Z,11.14
2023-05-17T08:25:43.887Z,10.80
2023-05-17T08:28:52.169Z,11.37
2023-05-17T08:32:01.066Z,11.67
2023-05-17T08:35:12.264Z,11.06
2023-05-17T08:38:20.843Z,11.57
2023-05-17T08:41:31.018Z,11.13
2023-05-17T08:44:40.154Z,12.28
2023-05-17T08:47:51.220Z,12.32
2023-05-17T08:51:01.893Z,11.86
2023-05-17T08:54:10.486Z,11.74
2023-05-17T08:57:20.361Z,10.44
2023-05-17T09:00:30.201Z,11.55
2023-05-17T09:03:44.251Z,10.80
2023-05-17T09:06:54.525Z,11.04
2023-05-17T09:10:05.690Z,10.23
2023-05-17T09:13:14.404Z,11.31
2023-05-17T09:16:23.594Z,12.18
2023-05-17T09:19:33.635Z,12.05
2023-05-17T09:22:44.514Z,11.80
2023-05-17T09:25:52.983Z,10.91
2023-05-17T09:29:01.614Z,11.85
2023-05-17T09:32:17.646Z,13.21
2023-05-17T09:35:30.801Z,12.99
2023-05-17T09:38:40.645Z,14.17
2023-05-17T09:41:51.226Z,14.96
2023-05-17T09:45:01.861Z,14.57
2023-05-17T09:48:15.523Z,14.62
2023-05-17T09:51:34.382Z,15.01
2023-05-17T09:54:43.906Z,13.08
2023-05-17T09:57:52.224Z,12.94
2023-05-17T10:01:03.768Z,14.00
2023-05-17T10:04:13.540Z,13.66
2023-05-17T10:07:22.505Z,13.24
2023-05-17T10:10:34.208Z,12.83
2023-05-17T10:13:49.890Z,14.01
2023-05-17T10:16:59.654Z,13.72
2023-05-17T10:20:11.482Z,13.87
2023-05-17T10:23:20.491Z,13.85
2023-05-17T10:26:31.417Z,13.62
2023-05-17T10:29:41.610Z,15.32
2023-05-17T10:32:52.722Z,15.02
2023-05-17T10:36:03.725Z,13.66
2023-05-17T10:39:13.006Z,14.10
2023-05-17T10:42:23.732Z,13.69
2023-05-17T10:45:32.423Z,15.19
2023-05-17T10:48:42.007Z,15.52
2023-05-17T10:51:50.770Z,14.81
2023-05-17T10:55:01.354Z,14.31
2023-05-17T10:58:22.504Z,14.68
2023-05-17T11:02:00.194Z,13.78
2023-05-17T11:05:23.520Z,14.54
2023-05-17T11:08:32.237Z,14.61
2023-05-17T11:12:11.198Z,12.42
2023-05-17T11:15:26.415Z,13.20
2023-05-17T11:18:52.624Z,13.52
2023-05-17T11:22:12.034Z,13.04
2023-05-17T11:25:21.954Z,12.94
2023-05-17T11:28:30.392Z,13.03
2023-05-17T11:31:46.326Z,13.47
2023-05-17T11:34:54.771Z,14.51
2023-05-17T11:38:15.622Z,14.79
2023-05-17T11:41:27.063Z,14.94
2023-05-17T11:44:35.930Z,14.73
2023-05-17T11:47:50.683Z,14.23
2023-05-17T11:51:02.173Z,14.64
2023-05-17T11:54:14.399Z,14.41
2023-05-17T11:57:24.273Z,14.10
2023-05-17T12:00:32.585Z,14.10
2023-05-17T12:03:42.454Z,14.21
2023-05-17T12:06:50.764Z,14.32
2023-05-17T12:09:59.007Z,13.99
2023-05-17T12:13:08.391Z,13.61
2023-05-17T12:16:19.573Z,13.47
2023-05-17T12:19:30.021Z,14.45
2023-05-17T12:22:54.297Z,14.11
2023-05-17T12:26:08.114Z,14.06
2023-05-17T12:29:22.768Z,13.97
2023-05-17T12:32:31.104Z,14.25
2023-05-17T12:35:41.301Z,14.28
2023-05-17T12:38:50.306Z,14.57
2023-05-17T12:41:59.079Z,14.91
2023-05-17T12:45:09.184Z,15.03
2023-05-17T12:48:17.569Z,15.07
2023-05-17T12:51:27.330Z,15.49
2023-05-17T12:54:35.613Z,16.31
2023-05-17T12:57:51.479Z,17.03
2023-05-17T13:01:05.117Z,16.45
2023-05-17T13:04:14.804Z,16.16
2023-05-17T13:07:25.805Z,16.14
2023-05-17T13:10:34.046Z,16.84
2023-05-17T13:13:42.799Z,16.52
2023-05-17T13:16:52.988Z,15.64
2023-05-17T13:20:02.110Z,16.06
2023-05-17T13:23:11.996Z,16.08
2023-05-17T13:26:21.510Z,15.47
2023-05-17T13:29:38.935Z,15.32
2023-05-17T13:32:48.745Z,15.37
2023-05-17T13:35:57.026Z,15.36
2023-05-17T13:39:06.601Z,15.61
2023-05-17T13:42:19.600Z,15.64
2023-05-17T13:45:28.663Z,15.34
2023-05-17T13:48:37.391Z,15.96
2023-05-17T13:51:46.822Z,16.00
2023-05-17T13:54:56.479Z,16.13
2023-05-17T13:58:04.614Z,15.57
2023-05-17T14:01:13.070Z,15.61
2023-05-17T14:04:22.737Z,16.24
2023-05-17T14:07:30.942Z,16.09
2023-05-17T14:10:40.444Z,15.91
2023-05-17T14:13:48.869Z,15.90
2023-05-17T14:16:57.762Z,15.36
2023-05-17T14:20:07.807Z,15.07
2023-05-17T14:23:16.169Z,14.42
2023-05-17T14:26:26.175Z,14.48
2023-05-17T14:29:34.333Z,14.42
2023-05-17T14:32:42.992Z,14.48
2023-05-17T14:35:51.220Z,13.88
2023-05-17T14:39:01.841Z,14.13
2023-05-17T14:42:11.525Z,14.81
2023-05-17T14:45:20.223Z,14.87
2023-05-17T14:48:28.430Z,15.02
2023-05-17T14:51:37.229Z,14.94
2023-05-17T14:54:45.672Z,15.60
2023-05-17T14:57:55.445Z,15.64
2023-05-17T15:01:05.440Z,15.23
2023-05-17T15:04:15.371Z,15.79
2023-05-17T15:07:23.562Z,15.72
2023-05-17T15:10:31.755Z,15.00
2023-05-17T15:13:41.305Z,15.35
2023-05-17T15:16:49.735Z,15.48
2023-05-17T15:19:58.807Z,14.95
2023-05-17T15:23:07.377Z,15.12
2023-05-17T15:26:15.683Z,14.81
2023-05-17T15:29:25.347Z,14.74
2023-05-17T15:32:35.667Z,14.43
2023-05-17T15:35:44.709Z,14.79
2023-05-17T15:38:52.930Z,14.90
2023-05-17T15:42:01.074Z,15.12
2023-05-17T15:45:11.504Z,15.10
2023-05-17T15:48:19.670Z,15.17
2023-05-17T15:51:28.002Z,15.18
2023-05-17T15:54:36.325Z,15.09
2023-05-17T15:57:44.604Z,15.14
2023-05-17T16:00:54.431Z,15.14
2023-05-17T16:04:02.815Z,15.09
2023-05-17T16:07:11.276Z,15.57
2023-05-17T16:10:19.982Z,15.15
2023-05-17T16:13:28.179Z,15.00
2023-05-17T16:16:37.841Z,14.45
2023-05-17T16:19:46.136Z,13.99
2023-05-17T16:22:54.417Z,13.60
2023-05-17T16:26:02.811Z,13.19
2023-05-17T16:29:13.571Z,13.02
2023-05-17T16:32:23.332Z,12.86
2023-05-17T16:35:31.892Z,12.68
2023-05-17T16:38:40.295Z,12.53
2023-05-17T16:41:49.492Z,12.45
2023-05-17T16:44:57.774Z,12.39
2023-05-17T16:48:07.723Z,12.31
2023-05-17T16:51:16.264Z,12.21
2023-05-17T16:54:26.372Z,12.15
2023-05-17T16:57:36.467Z,12.14
2023-05-17T17:00:44.788Z,12.08
2023-05-17T17:03:56.596Z,12.11
2023-05-17T17:07:05.438Z,11.99
2023-05-17T17:10:13.844Z,12.04
2023-05-17T17:13:22.003Z,11.96
2023-05-17T17:16:31.232Z,11.90
2023-05-17T17:19:41.368Z,11.91
2023-05-17T17:22:49.732Z,11.71
2023-05-17T17:25:58.258Z,11.61
2023-05-17T17:29:08.215Z,11.49
2023-05-17T17:32:16.741Z,11.46
2023-05-17T17:35:26.563Z,11.47
2023-05-17T17:38:35.126Z,11.38
2023-05-17T17:41:43.440Z,11.32
2023-05-17T17:44:52.217Z,11.30
2023-05-17T17:48:00.805Z,11.41
2023-05-17T17:51:10.469Z,11.33
2023-05-17T17:54:18.952Z,11.37
2023-05-17T17:57:27.568Z,11.31
2023-05-17T18:00:36.575Z,11.25
2023-05-17T18:03:45.050Z,11.25
2023-05-17T18:06:54.882Z,11.15
2023-05-17T18:10:03.380Z,11.02
2023-05-17T18:13:11.939Z,11.05
2023-05-17T18:16:20.321Z,11.02
2023-05-17T18:19:28.671Z,10.97
2023-05-17T18:22:38.511Z,11.00
2023-05-17T18:25:49.092Z,10.90
2023-05-17T18:28:57.528Z,10.86
2023-05-17T18:32:07.239Z,10.77
2023-05-17T18:35:16.170Z,10.72
2023-05-17T18:38:26.041Z,10.64
2023-05-17T18:41:34.528Z,10.65
2023-05-17T18:44:42.828Z,10.49
2023-05-17T18:47:51.373Z,10.30
2023-05-17T18:51:00.074Z,10.20
2023-05-17T18:54:10.656Z,10.20
2023-05-17T18:57:19.201Z,10.09
2023-05-17T19:00:28.891Z,10.07
2023-05-17T19:03:37.560Z,10.01
2023-05-17T19:06:47.026Z,10.02
2023-05-17T19:09:57.266Z,10.03
2023-05-17T19:13:06.703Z,9.96
2023-05-17T19:16:16.620Z,9.95
2023-05-17T19:19:25.839Z,9.89
2023-05-17T19:22:36.422Z,9.81
2023-05-17T19:25:46.149Z,9.73
2023-05-17T19:28:54.565Z,9.69
2023-05-17T19:32:03.012Z,9.68
2023-05-17T19:35:12.551Z,9.64
2023-05-17T19:38:20.971Z,9.61
2023-05-17T19:41:31.043Z,9.52
2023-05-17T19:44:40.877Z,9.58
2023-05-17T19:47:49.179Z,9.57
2023-05-17T19:50:57.810Z,9.51
2023-05-17T19:54:06.644Z,9.48
2023-05-17T19:57:16.198Z,9.44
2023-05-17T20:00:25.059Z,9.41
2023-05-17T20:03:33.621Z,9.39
2023-05-17T20:06:44.908Z,9.35
2023-05-17T20:09:53.898Z,9.31
2023-05-17T20:13:03.782Z,9.28
2023-05-17T20:16:13.765Z,9.26
2023-05-17T20:19:22.356Z,9.21
2023-05-17T20:22:31.736Z,9.21
2023-05-17T20:25:41.105Z,9.18
2023-05-17T20:28:52.722Z,9.14
2023-05-17T20:32:01.170Z,9.13
2023-05-17T20:35:10.418Z,9.04
2023-05-17T20:38:18.683Z,9.02
2023-05-17T20:41:27.426Z,8.98
2023-05-17T20:44:40.279Z,8.96
2023-05-17T20:47:48.793Z,8.94
2023-05-17T20:50:57.247Z,8.95
2023-05-17T20:54:08.701Z,8.90
2023-05-17T20:57:16.861Z,8.91
2023-05-17T21:00:26.431Z,8.89
2023-05-17T21:03:35.040Z,8.86
2023-05-17T21:06:44.283Z,8.79
2023-05-17T21:09:52.775Z,8.83
2023-05-17T21:13:01.313Z,8.77
2023-05-17T21:16:10.910Z,8.83
2023-05-17T21:19:21.939Z,8.88
2023-05-17T21:22:30.432Z,8.77
2023-05-17T21:25:38.812Z,8.86
2023-05-17T21:28:47.342Z,8.90
2023-05-17T21:31:57.211Z,8.94
2023-05-17T21:35:06.448Z,8.78
2023-05-17T21:38:15.035Z,8.74
2023-05-17T21:41:23.895Z,8.70
2023-05-17T21:44:32.380Z,8.72
2023-05-17T21:47:42.495Z,8.68
2023-05-17T21:50:50.976Z,8.66
2023-05-17T21:53:59.378Z,8.66
2023-05-17T21:57:07.724Z,8.82
2023-05-17T22:00:16.984Z,8.82
2023-05-17T22:03:26.843Z,8.78
2023-05-17T22:06:35.521Z,8.60
2023-05-17T22:09:45.466Z,8.50
2023-05-17T22:12:54.280Z,8.44
2023-05-17T22:16:02.589Z,8.38
2023-05-17T22:19:12.207Z,8.43
2023-05-17T22:22:21.712Z,8.39
2023-05-17T22:25:30.024Z,8.38
2023-05-17T22:28:38.573Z,8.41
2023-05-17T22:31:47.478Z,8.44
2023-05-17T22:34:57.169Z,8.41
2023-05-17T22:38:05.716Z,8.38
2023-05-17T22:41:14.636Z,8.39
2023-05-17T22:44:23.372Z,8.35
2023-05-17T22:47:32.049Z,8.24
2023-05-17T22:50:42.247Z,8.09
2023-05-17T22:53:50.774Z,7.89
2023-05-17T22:56:59.156Z,7.79
2023-05-17T23:00:11.266Z,7.60
2023-05-17T23:03:20.982Z,7.53
2023-05-17T23:06:34.126Z,7.43
2023-05-17T23:09:42.396Z,7.32
2023-05-17T23:12:52.437Z,7.17
2023-05-17T23:16:01.060Z,7.06
2023-05-17T23:19:09.841Z,6.97
2023-05-17T23:22:19.766Z,6.80
2023-05-17T23:25:28.908Z,6.68
2023-05-17T23:28:37.892Z,6.83
2023-05-17T23:31:47.967Z,6.60
2023-05-17T23:34:58.455Z,6.47
2023-05-17T23:38:08.193Z,6.42
2023-05-17T23:41:18.177Z,6.31
2023-05-17T23:44:26.802Z,6.29
2023-05-17T23:47:35.353Z,6.17
2023-05-17T23:50:43.636Z,6.09
2023-05-17T23:53:53.262Z,6.03
2023-05-17T23:57:02.479Z,5.99
